^^
Saratoga-Weather Station Historical Data
Daily Summary for March 31, 2020 Units:  English    Metric   Both
Daily Weekly Monthly Yearly Custom
  High: Low: Average:
Temperature: 69.4 °F 52.5 °F 60.8 °F
Dew Point: 55 °F 49.5 °F 52.2 °F
Humidity: 91% 55% 74%
Wind Speed: 11mph 0mph 2mph
Wind Gust: 12mph - -
Wind- - WSW
Pressure: 29.9 in 29.7 in -
Precipitation: 0 in    
Historical Graphs
 
 
Tabular Data for March 31, 2020
Time Temperature Dew Point Pressure Wind Wind Speed Wind Gust Humidity Rainfall Rate (Hourly) solar
00:04 55.6 °F 50.5 °F 29.7 in Calm   1 mph 83% 0 in 0 W/m2
00:09 55.6 °F 50.5 °F 29.7 in Calm     83% 0 in 0 W/m2
00:14 55.4 °F 50.4 °F 29.7 in Calm   1 mph 83% 0 in 0 W/m2
00:19 55.2 °F 50.5 °F 29.7 in Calm     84% 0 in 0 W/m2
00:24 55 °F 50.4 °F 29.7 in Calm     84% 0 in 0 W/m2
00:29 55 °F 50.4 °F 29.7 in Calm     84% 0 in 0 W/m2
00:34 54.9 °F 50.2 °F 29.7 in Calm     84% 0 in 0 W/m2
00:39 54.7 °F 50.2 °F 29.7 in Calm     85% 0 in 0 W/m2
00:44 54.7 °F 50 °F 29.7 in Calm     84% 0 in 0 W/m2
00:49 54.5 °F 50 °F 29.7 in Calm     85% 0 in 0 W/m2
00:54 54.3 °F 49.8 °F 29.7 in Calm     85% 0 in 0 W/m2
00:59 54.1 °F 49.8 °F 29.7 in Calm     85% 0 in 0 W/m2
01:04 54.1 °F 50 °F 29.7 in Calm     86% 0 in 0 W/m2
01:09 54 °F 49.8 °F 29.7 in Calm     86% 0 in 0 W/m2
01:14 54 °F 49.8 °F 29.7 in Calm     86% 0 in 0 W/m2
01:19 53.8 °F 49.6 °F 29.7 in Calm     86% 0 in 0 W/m2
01:24 53.8 °F 50 °F 29.7 in Calm     87% 0 in 0 W/m2
01:29 53.8 °F 50 °F 29.7 in Calm     87% 0 in 0 W/m2
01:34 53.8 °F 50 °F 29.7 in Calm     87% 0 in 0 W/m2
01:39 53.8 °F 50 °F 29.7 in Calm     87% 0 in 0 W/m2
01:44 53.8 °F 50 °F 29.7 in Calm     87% 0 in 0 W/m2
01:49 53.6 °F 50.2 °F 29.7 in Calm     88% 0 in 0 W/m2
01:54 53.4 °F 50 °F 29.7 in Calm     88% 0 in 0 W/m2
01:59 53.4 °F 50 °F 29.7 in Calm     88% 0 in 0 W/m2
02:05 53.4 °F 50 °F 29.7 in Calm     88% 0 in 0 W/m2
02:10 53.2 °F 49.8 °F 29.7 in Calm     88% 0 in 0 W/m2
02:15 53.2 °F 49.8 °F 29.7 in Calm     88% 0 in 0 W/m2
02:20 53.2 °F 49.8 °F 29.7 in Calm     88% 0 in 0 W/m2
02:25 53.1 °F 49.6 °F 29.7 in Calm     88% 0 in 0 W/m2
02:30 52.9 °F 49.5 °F 29.7 in Calm     88% 0 in 0 W/m2
02:35 52.9 °F 49.6 °F 29.7 in Calm     89% 0 in 0 W/m2
02:40 52.7 °F 49.5 °F 29.7 in Calm     89% 0 in 0 W/m2
02:45 52.5 °F 49.5 °F 29.7 in Calm     89% 0 in 0 W/m2
02:50 52.5 °F 49.6 °F 29.7 in SW 2 mph 2 mph 90% 0 in 0 W/m2
02:55 52.5 °F 49.6 °F 29.7 in Calm     90% 0 in 0 W/m2
03:00 52.7 °F 49.8 °F 29.7 in Calm     90% 0 in 0 W/m2
03:05 52.7 °F 49.8 °F 29.7 in Calm     90% 0 in 0 W/m2
03:10 53.1 °F 50.2 °F 29.7 in SW 0.9 mph 2 mph 90% 0 in 0 W/m2
03:15 53.1 °F 49.8 °F 29.7 in Calm     89% 0 in 0 W/m2
03:20 53.2 °F 50 °F 29.7 in SW 0.9 mph 1 mph 89% 0 in 0 W/m2
03:25 53.2 °F 50 °F 29.7 in East 2.9 mph 3 mph 89% 0 in 0 W/m2
03:30 53.4 °F 50.2 °F 29.7 in ESE 2 mph 3 mph 89% 0 in 0 W/m2
03:35 53.6 °F 50.4 °F 29.7 in Calm     89% 0 in 0 W/m2
03:40 53.8 °F 50.4 °F 29.7 in ESE 2 mph 2 mph 88% 0 in 0 W/m2
03:45 53.6 °F 50.2 °F 29.7 in Calm     88% 0 in 0 W/m2
03:50 53.6 °F 50.2 °F 29.7 in Calm     88% 0 in 0 W/m2
03:56 53.4 °F 50 °F 29.7 in Calm     88% 0 in 0 W/m2
04:06 53.4 °F 50.2 °F 29.7 in Calm     89% 0 in 0 W/m2
04:11 53.4 °F 50.2 °F 29.7 in Calm     89% 0 in 0 W/m2
04:16 53.2 °F 49.8 °F 29.7 in Calm     88% 0 in 0 W/m2
04:21 53.1 °F 49.8 °F 29.7 in Calm   1 mph 89% 0 in 0 W/m2
04:26 53.1 °F 49.8 °F 29.7 in WSW 0.9 mph 3 mph 89% 0 in 0 W/m2
04:31 53.1 °F 49.8 °F 29.7 in Calm     89% 0 in 0 W/m2
04:36 52.9 °F 49.6 °F 29.7 in Calm   1 mph 89% 0 in 0 W/m2
04:41 52.9 °F 49.6 °F 29.7 in WSW 2 mph 2 mph 89% 0 in 0 W/m2
04:46 52.9 °F 49.6 °F 29.7 in Calm   1 mph 89% 0 in 0 W/m2
04:51 52.9 °F 49.6 °F 29.7 in Calm   2 mph 89% 0 in 0 W/m2
04:56 52.9 °F 49.6 °F 29.7 in Calm     89% 0 in 0 W/m2
05:01 52.9 °F 49.6 °F 29.7 in Calm     89% 0 in 0 W/m2
05:06 52.9 °F 50 °F 29.7 in Calm     90% 0 in 0 W/m2
05:11 52.9 °F 50 °F 29.7 in Calm     90% 0 in 0 W/m2
05:16 52.9 °F 50 °F 29.7 in Calm     90% 0 in 0 W/m2
05:21 52.9 °F 50 °F 29.7 in Calm     90% 0 in 0 W/m2
05:26 52.7 °F 49.8 °F 29.7 in Calm     90% 0 in 0 W/m2
05:31 52.7 °F 49.8 °F 29.7 in Calm     90% 0 in 0 W/m2
05:36 52.5 °F 49.6 °F 29.7 in Calm     90% 0 in 0 W/m2
05:41 52.5 °F 49.6 °F 29.7 in Calm   1 mph 90% 0 in 0 W/m2
05:46 52.5 °F 49.6 °F 29.7 in Calm     90% 0 in 0 W/m2
05:51 52.5 °F 49.6 °F 29.7 in Calm   1 mph 90% 0 in 0 W/m2
05:56 52.5 °F 50 °F 29.7 in WSW 0.9 mph 1 mph 91% 0 in 0 W/m2
06:01 52.5 °F 50 °F 29.7 in SSW 0.9 mph 2 mph 91% 0 in 0 W/m2
06:06 52.9 °F 50.4 °F 29.7 in Calm   1 mph 91% 0 in 0 W/m2
06:11 52.9 °F 50.4 °F 29.7 in Calm     91% 0 in 0 W/m2
06:16 53.1 °F 50.5 °F 29.7 in SSW 0.9 mph 1 mph 91% 0 in 0 W/m2
06:21 53.1 °F 50.5 °F 29.7 in Calm     91% 0 in 0 W/m2
06:27 53.1 °F 50.5 °F 29.7 in Calm   1 mph 91% 0 in 0 W/m2
06:32 53.1 °F 50.5 °F 29.7 in Calm     91% 0 in 0 W/m2
06:37 53.1 °F 50.5 °F 29.7 in Calm     91% 0 in 0 W/m2
06:42 53.1 °F 50.5 °F 29.7 in SSW 2 mph 2 mph 91% 0 in 0 W/m2
06:47 53.2 °F 50.7 °F 29.7 in Calm   2 mph 91% 0 in 0 W/m2
06:52 53.2 °F 50.7 °F 29.7 in Calm     91% 0 in 0 W/m2
06:57 53.2 °F 50.7 °F 29.7 in Calm     91% 0 in 0 W/m2
07:02 53.2 °F 50.7 °F 29.7 in Calm     91% 0 in 0 W/m2
07:07 53.2 °F 50.7 °F 29.7 in Calm     91% 0 in 5 W/m2
07:12 53.2 °F 50.7 °F 29.7 in Calm     91% 0 in 9 W/m2
07:17 53.1 °F 50.5 °F 29.7 in Calm     91% 0 in 11 W/m2
07:22 53.1 °F 50.5 °F 29.7 in Calm     91% 0 in 12 W/m2
07:27 53.1 °F 50.5 °F 29.7 in Calm     91% 0 in 19 W/m2
07:32 53.1 °F 50.5 °F 29.7 in Calm     91% 0 in 25 W/m2
07:37 53.2 °F 50.7 °F 29.7 in Calm   1 mph 91% 0 in 26 W/m2
07:42 53.2 °F 50.7 °F 29.7 in Calm     91% 0 in 33 W/m2
07:47 53.2 °F 50.7 °F 29.7 in Calm     91% 0 in 37 W/m2
07:52 53.2 °F 50.7 °F 29.7 in Calm     91% 0 in 40 W/m2
07:57 53.4 °F 50.9 °F 29.7 in NW 0.9 mph 2 mph 91% 0 in 49 W/m2
08:02 53.8 °F 51.3 °F 29.7 in Calm     91% 0 in 49 W/m2
08:07 54 °F 51.4 °F 29.7 in Calm   2 mph 91% 0 in 51 W/m2
08:12 54.1 °F 51.6 °F 29.7 in NW 0.9 mph 1 mph 91% 0 in 58 W/m2
08:17 54.3 °F 51.4 °F 29.7 in Calm     90% 0 in 72 W/m2
08:22 54.7 °F 51.4 °F 29.7 in Calm   1 mph 89% 0 in 83 W/m2
08:27 55 °F 51.6 °F 29.7 in Calm   2 mph 88% 0 in 84 W/m2
08:32 55.6 °F 51.8 °F 29.7 in Calm     87% 0 in 97 W/m2
08:37 55.9 °F 51.8 °F 29.7 in Calm   2 mph 86% 0 in 98 W/m2
08:42 56.1 °F 52 °F 29.7 in Calm   1 mph 86% 0 in 100 W/m2
08:47 56.5 °F 52.3 °F 29.7 in Calm     86% 0 in 107 W/m2
08:52 56.5 °F 52 °F 29.7 in Calm   1 mph 85% 0 in 109 W/m2
08:57 56.7 °F 52.2 °F 29.7 in Calm   1 mph 85% 0 in 109 W/m2
09:02 56.8 °F 52.3 °F 29.7 in Calm   1 mph 85% 0 in 113 W/m2
09:07 57 °F 52.2 °F 29.7 in Calm     84% 0 in 114 W/m2
09:12 57.2 °F 52.3 °F 29.7 in Calm     84% 0 in 121 W/m2
09:17 57.4 °F 52.3 °F 29.7 in Calm     83% 0 in 132 W/m2
09:22 57.6 °F 52.5 °F 29.7 in Calm   3 mph 83% 0 in 142 W/m2
09:27 57.7 °F 52.3 °F 29.7 in NW 0.9 mph 2 mph 82% 0 in 153 W/m2
09:32 57.9 °F 52.2 °F 29.7 in NW 0.9 mph 3 mph 81% 0 in 158 W/m2
09:37 58.1 °F 52.7 °F 29.7 in Calm     82% 0 in 158 W/m2
09:42 58.5 °F 52.7 °F 29.7 in NW 0.9 mph 2 mph 81% 0 in 169 W/m2
09:47 58.6 °F 52.9 °F 29.7 in WSW 0.9 mph 3 mph 81% 0 in 190 W/m2
09:52 58.8 °F 53.1 °F 29.7 in WNW 0.9 mph 1 mph 81% 0 in 188 W/m2
09:57 59.2 °F 53.4 °F 29.8 in Calm   3 mph 81% 0 in 192 W/m2
10:02 59.4 °F 53.6 °F 29.8 in WNW 0.9 mph 2 mph 81% 0 in 207 W/m2
10:07 59.5 °F 53.1 °F 29.8 in West 0.9 mph 4 mph 79% 0 in 220 W/m2
10:12 59.5 °F 53.4 °F 29.8 in West 0.9 mph 2 mph 80% 0 in 225 W/m2
10:17 60.1 °F 54 °F 29.8 in NW 0.9 mph 4 mph 80% 0 in 225 W/m2
10:22 60.4 °F 54 °F 29.8 in NE 2 mph 2 mph 79% 0 in 223 W/m2
10:27 61 °F 54.1 °F 29.8 in Calm   4 mph 78% 0 in 223 W/m2
10:32 61.3 °F 53.8 °F 29.8 in East 0.9 mph 3 mph 76% 0 in 223 W/m2
10:37 61.7 °F 53.8 °F 29.8 in WNW 4 mph 4 mph 75% 0 in 225 W/m2
10:42 61.9 °F 53.8 °F 29.8 in NNW 2 mph 2 mph 75% 0 in 232 W/m2
10:47 62.1 °F 53.6 °F 29.8 in NNE 2.9 mph 3 mph 74% 0 in 237 W/m2
10:52 62.2 °F 53.8 °F 29.8 in NE 0.9 mph 3 mph 74% 0 in 241 W/m2
10:57 62.6 °F 54.1 °F 29.8 in NNW 2.9 mph 3 mph 74% 0 in 241 W/m2
11:02 62.8 °F 54 °F 29.8 in WNW 2 mph 4 mph 73% 0 in 241 W/m2
11:07 63 °F 54.1 °F 29.8 in WNW 2 mph 2 mph 73% 0 in 241 W/m2
11:12 63.1 °F 54.3 °F 29.8 in WSW 0.9 mph 5 mph 73% 0 in 251 W/m2
11:17 63.1 °F 54.3 °F 29.8 in NW 2 mph 4 mph 73% 0 in 269 W/m2
11:22 63.7 °F 54.1 °F 29.8 in North 2 mph 6 mph 71% 0 in 294 W/m2
11:27 63.9 °F 54.3 °F 29.8 in North 2.9 mph 3 mph 71% 0 in 309 W/m2
11:32 64 °F 54.9 °F 29.8 in West 2.9 mph 6 mph 72% 0 in 406 W/m2
11:37 64.4 °F 54.3 °F 29.8 in NNW 2.9 mph 4 mph 70% 0 in 297 W/m2
11:42 64.6 °F 54.5 °F 29.8 in ESE 2 mph 6 mph 70% 0 in 311 W/m2
11:47 64.8 °F 54.7 °F 29.8 in Calm   2 mph 70% 0 in 408 W/m2
11:53 64.9 °F 54.5 °F 29.8 in Calm   3 mph 69% 0 in 408 W/m2
11:58 65.1 °F 54.7 °F 29.8 in ENE 2.9 mph 3 mph 69% 0 in 373 W/m2
12:03 65.3 °F 54.5 °F 29.8 in ESE 0.9 mph 3 mph 68% 0 in 330 W/m2
12:08 65.5 °F 54.3 °F 29.8 in Calm   1 mph 67% 0 in 353 W/m2
12:13 65.8 °F 55 °F 29.8 in South 0.9 mph 1 mph 68% 0 in 378 W/m2
12:18 66.4 °F 54.7 °F 29.8 in North 0.9 mph 2 mph 66% 0 in 408 W/m2
12:23 66.6 °F 54.9 °F 29.8 in NNE 2.9 mph 3 mph 66% 0 in 415 W/m2
12:28 66.6 °F 53.6 °F 29.8 in SW 0.9 mph 2 mph 63% 0 in 443 W/m2
12:33 66.7 °F 54.1 °F 29.8 in North 2 mph 3 mph 64% 0 in 424 W/m2
12:38 66.7 °F 53.8 °F 29.8 in WSW 2 mph 6 mph 63% 0 in 394 W/m2
12:43 66.6 °F 54 °F 29.8 in ESE 2.9 mph 3 mph 64% 0 in 346 W/m2
12:48 66.7 °F 54.7 °F 29.8 in ENE 2 mph 5 mph 65% 0 in 343 W/m2
12:53 66.9 °F 54.9 °F 29.8 in East 2 mph 3 mph 65% 0 in 362 W/m2
12:58 67.1 °F 54.1 °F 29.8 in NE 2.9 mph 3 mph 63% 0 in 369 W/m2
13:03 67.3 °F 54.3 °F 29.8 in Calm   1 mph 63% 0 in 362 W/m2
13:08 67.5 °F 53.6 °F 29.8 in North 2 mph 5 mph 61% 0 in 362 W/m2
13:13 67.5 °F 53.1 °F 29.8 in ENE 2 mph 4 mph 60% 0 in 359 W/m2
13:18 67.5 °F 53.1 °F 29.8 in NE 2 mph 5 mph 60% 0 in 318 W/m2
13:23 67.5 °F 53.1 °F 29.8 in WSW 0.9 mph 3 mph 60% 0 in 302 W/m2
13:28 67.5 °F 53.6 °F 29.8 in NE 2 mph 3 mph 61% 0 in 362 W/m2
13:33 67.6 °F 54.1 °F 29.8 in NW 2.9 mph 6 mph 62% 0 in 380 W/m2
13:38 67.8 °F 53.4 °F 29.8 in WSW 2.9 mph 4 mph 60% 0 in 359 W/m2
13:43 67.8 °F 54 °F 29.8 in WNW 0.9 mph 4 mph 61% 0 in 388 W/m2
13:48 67.6 °F 52.9 °F 29.8 in North 2.9 mph 5 mph 59% 0 in 399 W/m2
13:53 68 °F 53.1 °F 29.8 in West 4 mph 8 mph 59% 0 in 392 W/m2
13:58 67.8 °F 52.5 °F 29.8 in WSW 0.9 mph 3 mph 58% 0 in 388 W/m2
14:03 68 °F 53.1 °F 29.8 in WNW 0.9 mph 8 mph 59% 0 in 369 W/m2
14:08 67.8 °F 52.9 °F 29.8 in WNW 2.9 mph 5 mph 59% 0 in 392 W/m2
14:13 67.8 °F 52.9 °F 29.8 in NW 2.9 mph 4 mph 59% 0 in 394 W/m2
14:18 68 °F 52.7 °F 29.8 in North 2 mph 3 mph 58% 0 in 390 W/m2
14:23 68.2 °F 52.9 °F 29.8 in WNW 2.9 mph 4 mph 58% 0 in 394 W/m2
14:28 68.2 °F 52.9 °F 29.8 in WSW 0.9 mph 3 mph 58% 0 in 420 W/m2
14:33 68.2 °F 51.8 °F 29.8 in West 8.1 mph 8 mph 56% 0 in 399 W/m2
14:38 68.4 °F 52.5 °F 29.8 in WNW 0.9 mph 4 mph 57% 0 in 403 W/m2
14:44 68.5 °F 52.2 °F 29.8 in NW 0.9 mph 8 mph 56% 0 in 396 W/m2
14:49 68.7 °F 52.9 °F 29.8 in WNW 4 mph 4 mph 57% 0 in 322 W/m2
14:54 68.7 °F 52.9 °F 29.8 in NNW 2.9 mph 3 mph 57% 0 in 390 W/m2
14:59 68.5 °F 52.7 °F 29.8 in WSW 4.9 mph 8 mph 57% 0 in 299 W/m2
15:04 68.5 °F 52.2 °F 29.8 in WNW 4 mph 8 mph 56% 0 in 445 W/m2
15:09 68.5 °F 52.2 °F 29.8 in West 2 mph 5 mph 56% 0 in 283 W/m2
15:14 68.7 °F 52.9 °F 29.8 in WNW 2.9 mph 8 mph 57% 0 in 436 W/m2
15:19 69.1 °F 53.2 °F 29.8 in WNW 6 mph 8 mph 57% 0 in 425 W/m2
15:24 69.3 °F 52.3 °F 29.8 in WNW 2.9 mph 7 mph 55% 0 in 411 W/m2
15:29 69.3 °F 52.3 °F 29.8 in NW 4 mph 6 mph 55% 0 in 265 W/m2
15:34 69.3 °F 52.3 °F 29.8 in WNW 0.9 mph 5 mph 55% 0 in 378 W/m2
15:39 69.4 °F 52.5 °F 29.8 in WSW 4 mph 7 mph 55% 0 in 329 W/m2
15:44 69.4 °F 52.5 °F 29.8 in WSW 2 mph 11 mph 55% 0 in 253 W/m2
15:49 69.3 °F 52.3 °F 29.8 in SW 4 mph 7 mph 55% 0 in 225 W/m2
15:54 69.1 °F 52.7 °F 29.8 in WNW 2.9 mph 11 mph 56% 0 in 232 W/m2
15:59 68.9 °F 52.5 °F 29.8 in WSW 2 mph 11 mph 56% 0 in 258 W/m2
16:04 68.9 °F 53.1 °F 29.8 in West 4 mph 9 mph 57% 0 in 251 W/m2
16:09 68.9 °F 52 °F 29.8 in WSW 4 mph 11 mph 55% 0 in 265 W/m2
16:14 69.1 °F 52.7 °F 29.8 in NW 2 mph 5 mph 56% 0 in 209 W/m2
16:19 69.1 °F 53.2 °F 29.8 in West 8.1 mph 9 mph 57% 0 in 151 W/m2
16:24 68.7 °F 52.9 °F 29.8 in WSW 2.9 mph 6 mph 57% 0 in 100 W/m2
16:30 68.5 °F 53.2 °F 29.8 in WSW 2.9 mph 10 mph 58% 0 in 95 W/m2
16:35 68.4 °F 53.1 °F 29.8 in NW 4 mph 6 mph 58% 0 in 97 W/m2
16:40 68.2 °F 53.2 °F 29.8 in West 4 mph 10 mph 59% 0 in 105 W/m2
16:45 68.2 °F 53.2 °F 29.8 in WNW 6 mph 7 mph 59% 0 in 118 W/m2
16:50 68.2 °F 53.2 °F 29.8 in West 4 mph 7 mph 59% 0 in 141 W/m2
16:55 68.2 °F 53.2 °F 29.8 in NW 6.9 mph 7 mph 59% 0 in 139 W/m2
17:00 68.2 °F 53.2 °F 29.8 in West 4 mph 7 mph 59% 0 in 148 W/m2
17:05 68 °F 52.7 °F 29.8 in WNW 6.9 mph 7 mph 58% 0 in 155 W/m2
17:10 68.2 °F 52.9 °F 29.8 in WNW 2.9 mph 5 mph 58% 0 in 160 W/m2
17:15 68.2 °F 52.9 °F 29.8 in West 2.9 mph 9 mph 58% 0 in 160 W/m2
17:20 68.4 °F 53.1 °F 29.8 in WNW 4 mph 7 mph 58% 0 in 151 W/m2
17:25 68.2 °F 52.9 °F 29.8 in WNW 4 mph 7 mph 58% 0 in 137 W/m2
17:30 68.2 °F 52.9 °F 29.8 in NW 2 mph 7 mph 58% 0 in 121 W/m2
17:35 68.2 °F 53.2 °F 29.8 in WSW 6.9 mph 7 mph 59% 0 in 123 W/m2
17:40 68.2 °F 52.9 °F 29.8 in NW 2.9 mph 6 mph 58% 0 in 114 W/m2
17:45 68.2 °F 53.2 °F 29.8 in WNW 2.9 mph 6 mph 59% 0 in 127 W/m2
17:50 68.2 °F 53.2 °F 29.8 in WSW 4 mph 4 mph 59% 0 in 148 W/m2
17:55 68.2 °F 53.2 °F 29.8 in West 2 mph 10 mph 59% 0 in 165 W/m2
18:00 68.2 °F 53.2 °F 29.8 in WNW 4 mph 8 mph 59% 0 in 186 W/m2
18:05 68.2 °F 53.2 °F 29.8 in West 2.9 mph 7 mph 59% 0 in 211 W/m2
18:10 68.4 °F 53.4 °F 29.8 in WSW 2.9 mph 7 mph 59% 0 in 155 W/m2
18:15 68.4 °F 53.4 °F 29.8 in West 2 mph 4 mph 59% 0 in 142 W/m2
18:20 68.4 °F 53.4 °F 29.8 in West 2.9 mph 6 mph 59% 0 in 155 W/m2
18:25 68.4 °F 53.4 °F 29.8 in West 2.9 mph 5 mph 59% 0 in 144 W/m2
18:30 68.2 °F 53.2 °F 29.8 in SW 2 mph 9 mph 59% 0 in 148 W/m2
18:36 68.2 °F 53.2 °F 29.8 in WNW 2.9 mph 4 mph 59% 0 in 139 W/m2
18:41 68.2 °F 53.2 °F 29.8 in WNW 8.1 mph 8 mph 59% 0 in 151 W/m2
18:46 68.2 °F 53.2 °F 29.8 in West 2.9 mph 6 mph 59% 0 in 146 W/m2
18:51 68.2 °F 53.2 °F 29.8 in West 2.9 mph 7 mph 59% 0 in 193 W/m2
18:56 68.2 °F 53.2 °F 29.8 in West 2.9 mph 10 mph 59% 0 in 162 W/m2
19:01 68 °F 53.6 °F 29.8 in West 6.9 mph 11 mph 60% 0 in 125 W/m2
19:06 67.6 °F 53.2 °F 29.8 in West 2.9 mph 10 mph 60% 0 in 118 W/m2
19:11 67.5 °F 53.6 °F 29.8 in WSW 4 mph 10 mph 61% 0 in 105 W/m2
19:16 67.5 °F 53.6 °F 29.8 in WNW 6 mph 9 mph 61% 0 in 123 W/m2
19:21 67.5 °F 54 °F 29.8 in SW 2.9 mph 4 mph 62% 0 in 100 W/m2
19:26 66.9 °F 53.4 °F 29.8 in WSW 8.9 mph 9 mph 62% 0 in 67 W/m2
19:31 66.7 °F 53.2 °F 29.8 in WNW 2 mph 7 mph 62% 0 in 51 W/m2
19:36 66.6 °F 53.1 °F 29.8 in WSW 2 mph 7 mph 62% 0 in 40 W/m2
19:41 66.4 °F 53.4 °F 29.8 in West 4 mph 10 mph 63% 0 in 33 W/m2
19:46 66 °F 53.1 °F 29.8 in WNW 2 mph 5 mph 63% 0 in 26 W/m2
19:51 65.8 °F 52.9 °F 29.8 in WSW 2.9 mph 10 mph 63% 0 in 23 W/m2
19:56 65.7 °F 53.2 °F 29.9 in NW 4 mph 8 mph 64% 0 in 19 W/m2
20:01 65.3 °F 52.9 °F 29.9 in WNW 2.9 mph 11 mph 64% 0 in 16 W/m2
20:06 65.1 °F 52.7 °F 29.9 in NW 6 mph 9 mph 64% 0 in 12 W/m2
20:11 64.9 °F 52.5 °F 29.9 in NW 2 mph 11 mph 64% 0 in 9 W/m2
20:16 64.8 °F 52.3 °F 29.9 in WNW 2.9 mph 8 mph 64% 0 in 5 W/m2
20:21 64.6 °F 52.5 °F 29.9 in WNW 4 mph 4 mph 65% 0 in 7 W/m2
20:26 64.4 °F 52.3 °F 29.9 in WSW 2.9 mph 7 mph 65% 0 in 0 W/m2
20:31 64.2 °F 52.2 °F 29.9 in West 2.9 mph 10 mph 65% 0 in 0 W/m2
20:36 64 °F 52.5 °F 29.9 in WSW 4 mph 7 mph 66% 0 in 0 W/m2
20:41 64 °F 52.5 °F 29.9 in West 6 mph 8 mph 66% 0 in 0 W/m2
20:46 63.9 °F 52.3 °F 29.9 in West 2.9 mph 10 mph 66% 0 in 0 W/m2
20:51 63.7 °F 52.2 °F 29.9 in West 4 mph 10 mph 66% 0 in 0 W/m2
20:56 63.7 °F 52.2 °F 29.9 in West 6.9 mph 8 mph 66% 0 in 0 W/m2
21:01 63.5 °F 52.3 °F 29.9 in WSW 6.9 mph 11 mph 67% 0 in 0 W/m2
21:06 63.3 °F 52.2 °F 29.9 in West 2.9 mph 6 mph 67% 0 in 0 W/m2
21:11 63.1 °F 52 °F 29.9 in West 6 mph 11 mph 67% 0 in 0 W/m2
21:16 63.1 °F 52 °F 29.9 in West 6 mph 6 mph 67% 0 in 0 W/m2
21:21 63.1 °F 52.3 °F 29.9 in WNW 2.9 mph 11 mph 68% 0 in 0 W/m2
21:26 63 °F 52.2 °F 29.9 in West 11 mph 11 mph 68% 0 in 0 W/m2
21:31 63 °F 52.2 °F 29.9 in WSW 4 mph 8 mph 68% 0 in 0 W/m2
21:36 63 °F 52.2 °F 29.9 in WNW 6.9 mph 11 mph 68% 0 in 0 W/m2
21:41 63 °F 52.2 °F 29.9 in West 2 mph 11 mph 68% 0 in 0 W/m2
21:46 62.8 °F 52.5 °F 29.9 in West 4 mph 8 mph 69% 0 in 0 W/m2
21:51 62.4 °F 52.2 °F 29.9 in WNW 2.9 mph 8 mph 69% 0 in 0 W/m2
21:56 62.4 °F 52.5 °F 29.9 in WSW 2.9 mph 7 mph 70% 0 in 0 W/m2
22:01 62.4 °F 52.5 °F 29.9 in WSW 8.1 mph 12 mph 70% 0 in 0 W/m2
22:06 62.4 °F 52.5 °F 29.9 in West 6 mph 8 mph 70% 0 in 0 W/m2
22:11 62.2 °F 52.3 °F 29.9 in WNW 4 mph 12 mph 70% 0 in 0 W/m2
22:16 62.2 °F 52.3 °F 29.9 in WNW 4.9 mph 8 mph 70% 0 in 0 W/m2
22:21 62.1 °F 52.5 °F 29.9 in West 8.1 mph 10 mph 71% 0 in 0 W/m2
22:26 62.1 °F 52.5 °F 29.9 in WNW 2.9 mph 9 mph 71% 0 in 0 W/m2
22:32 62.1 °F 52.5 °F 29.9 in WNW 6.9 mph 7 mph 71% 0 in 0 W/m2
22:37 61.9 °F 52.7 °F 29.9 in West 2 mph 4 mph 72% 0 in 0 W/m2
22:42 61.9 °F 52.7 °F 29.9 in West 4 mph 8 mph 72% 0 in 0 W/m2
22:47 61.9 °F 52.7 °F 29.9 in WNW 0.9 mph 9 mph 72% 0 in 0 W/m2
22:52 61.9 °F 53.1 °F 29.9 in WNW 4 mph 6 mph 73% 0 in 0 W/m2
22:57 61.9 °F 53.1 °F 29.9 in West 6 mph 10 mph 73% 0 in 0 W/m2
23:02 61.9 °F 53.1 °F 29.9 in West 4 mph 7 mph 73% 0 in 0 W/m2
23:07 61.9 °F 53.1 °F 29.9 in West 4 mph 10 mph 73% 0 in 0 W/m2
23:12 62.1 °F 53.6 °F 29.9 in West 4 mph 7 mph 74% 0 in 0 W/m2
23:17 61.9 °F 53.4 °F 29.9 in WNW 4.9 mph 8 mph 74% 0 in 0 W/m2
23:22 61.9 °F 53.8 °F 29.9 in NW 2.9 mph 9 mph 75% 0 in 0 W/m2
23:27 61.9 °F 53.8 °F 29.9 in WSW 4.9 mph 5 mph 75% 0 in 0 W/m2
23:32 61.7 °F 54.1 °F 29.9 in WSW 2.9 mph 9 mph 76% 0 in 0 W/m2
23:37 61.5 °F 54.3 °F 29.9 in WNW 2.9 mph 6 mph 77% 0 in 0 W/m2
23:42 61.5 °F 54.7 °F 29.9 in West 4 mph 8 mph 78% 0 in 0 W/m2
23:47 61.3 °F 54.5 °F 29.9 in WSW 4 mph 7 mph 78% 0 in 0 W/m2
23:52 61.3 °F 54.9 °F 29.9 in West 2.9 mph 6 mph 79% 0 in 0 W/m2
23:57 61.3 °F 55 °F 29.9 in NW 4 mph 7 mph 80% 0 in 0 W/m2
Juneau County Weather
Compliments of Weather Underground - 4 mb